• Join FlightAware (Why Join?)
  • Login
  • US Flag 
02:07PM EDT


 

Airport Tracker/Info


-or-


 

Live Flight TrackerFlight Track Log ✈ QJE1949 ✈ 23-Jul-2013 ✈ YBCS / CNS - YBAS / ASP

Flight Track Log - Related Links

Times and Time Zones

All times are in EDT time to prevent confusion due to time zone crossing. See the QJE1949 flight status page for this flight to view local times or setup timezone preferences in your user account.

Time Position Orientation Groundspeed Altitude Reporting Facility
EDT Latitude Longitude Course Direction KTS MPH feet Rate Location/Type
09:25PM -16.8980 145.7640 104° East 151 174 1,200  Level FlightAware
09:25PM -16.8985 145.7686 55° Northeast 163 188 1,600 1,980 Climbing Aus ATC (RADAR)
09:25PM -16.8870 145.7860 62° Northeast 196 226 2,200 1,440 Climbing FlightAware
09:26PM -16.8600 145.8030 31° Northeast 231 266 2,900 1,740 Climbing FlightAware
09:26PM -16.8370 145.8180 32° Northeast 253 291 3,800 2,400 Climbing FlightAware
09:26PM -16.8260 145.8260 35° Northeast 256 295 4,300 2,820 Climbing FlightAware
09:27PM -16.7940 145.8450 30° Northeast 275 316 5,700 2,820 Climbing FlightAware
09:27PM -16.7810 145.8470 North 276 318 6,200 3,000 Climbing FlightAware
09:28PM -16.7460 145.8290 334° Northwest 286 329 7,700 3,120 Climbing FlightAware
09:28PM -16.7400 145.8170 298° West 278 320 8,300 3,360 Climbing FlightAware
09:28PM -16.7360 145.7970 282° West 279 321 9,100 2,640 Climbing FlightAware
09:29PM -16.7480 145.7600 251° West 289 333 10,300 1,800 Climbing FlightAware
09:29PM -16.7810 145.7000 240° Southwest 328 377 11,400 1,500 Climbing FlightAware
09:30PM -16.8115 145.6508 240° Southwest 343 395 12,300 1,200 Climbing Aus ATC (RADAR)
09:30PM -16.8160 145.6450 240° Southwest 356 410 12,200 1,320 Descending FlightAware
09:31PM -16.8550 145.5830 240° Southwest 381 438 13,300 1,740 Climbing FlightAware
09:31PM -16.8549 145.5834 240° Southwest 372 428 13,400 2,100 Climbing Aus ATC (RADAR)
09:31PM -16.8940 145.5220 236° Southwest 384 442 14,700 1,860 Climbing FlightAware
09:32PM -16.9360 145.4570 236° Southwest 394 453 15,900 1,800 Climbing FlightAware
09:33PM -16.9760 145.3950 236° Southwest 396 456 17,200 1,740 Climbing FlightAware
09:33PM -17.0080 145.3450 236° Southwest 404 465 18,100 1,560 Climbing FlightAware
09:34PM -17.0580 145.2660 236° Southwest 414 476 19,300 1,500 Climbing FlightAware
09:35PM -17.1117 145.1815 236° Southwest 418 481 20,500 1,440 Climbing Aus ATC (RADAR)
09:35PM -17.1130 145.1800 236° Southwest 424 488 20,500 1,740 Level FlightAware
09:36PM -17.1630 145.1020 236° Southwest 418 481 21,900 1,620 Climbing FlightAware
09:36PM -17.2120 145.0250 236° Southwest 419 482 23,000 1,320 Climbing FlightAware
09:37PM -17.2540 144.9580 237° Southwest 420 483 23,800 1,200 Climbing FlightAware
09:38PM -17.2970 144.8910 236° Southwest 421 484 24,600 960 Climbing FlightAware
09:38PM -17.3340 144.8330 236° Southwest 426 490 25,000 720 Climbing FlightAware
09:39PM -17.3850 144.7530 236° Southwest 435 501 25,600 780 Climbing FlightAware
09:40PM -17.4205 144.6946 236° Southwest 432 497 26,100 720 Climbing Aus ATC (RADAR)
09:40PM -17.4290 144.6820 236° Southwest 438 504 26,100 540 Level FlightAware
09:40PM -17.4690 144.6200 236° Southwest 442 509 26,500 600 Climbing FlightAware
09:41PM -17.5120 144.5530 236° Southwest 447 514 26,900 960 Climbing FlightAware
09:42PM -17.5620 144.4720 237° Southwest 440 506 27,900 600 Climbing FlightAware
09:43PM -17.6230 144.3750 237° Southwest 441 507 28,000 60 Climbing FlightAware
09:43PM -17.6580 144.3180 237° Southwest 441 507 28,000  Level FlightAware
09:44PM -17.6920 144.2630 237° Southwest 441 507 28,000 2,220 Level FlightAware
09:44PM -17.5760 144.4510 57° Northeast 30,800 3,420 Climbing FlightAware
09:45PM -17.7867 144.1129 57° Northeast 420 483 32,000 1,080 Climbing Aus ATC (RADAR)
09:45PM -17.7990 144.0960 57° Northeast 423 487 32,000  Level FlightAware
09:46PM -17.8470 144.0190 237° Southwest 414 476 32,000  Level FlightAware
09:47PM -17.8890 143.9510 237° Southwest 416 479 32,000  Level FlightAware
09:48PM -17.9390 143.8730 236° Southwest 418 481 32,000  Level FlightAware
09:48PM -17.9720 143.8210 236° Southwest 418 481 32,000  Level FlightAware
09:49PM -18.0300 143.7270 237° Southwest 430 495 32,000 60 Level FlightAware
09:50PM -18.0929 143.6243 237° Southwest 426 490 32,100  Climbing Aus ATC (RADAR)
09:50PM -18.0760 143.6530 237° Southwest 430 495 32,000 -120 Descending FlightAware
09:51PM -18.1090 143.5990 237° Southwest 430 495 32,000 120 Level FlightAware
09:51PM -18.1639 143.5071 237° Southwest 406 467 32,100  Climbing Aus ATC (RADAR)
09:52PM -18.1550 143.5240 237° Southwest 430 495 32,000 -120 Descending FlightAware
09:52PM -18.1990 143.4530 237° Southwest 430 495 32,000  Level FlightAware
09:53PM -18.2320 143.3990 237° Southwest 430 495 32,000 120 Level FlightAware
09:53PM -18.3034 143.2842 237° Southwest 406 467 32,100 120 Climbing Aus ATC (RADAR)
09:54PM -18.3502 143.2093 237° Southwest 409 471 32,100 -120 Level Aus ATC (RADAR)
09:54PM -18.3100 143.2730 237° Southwest 430 495 32,000  Descending FlightAware
09:55PM -18.4257 143.0932 237° Southwest 413 475 32,100  Climbing Aus ATC (RADAR)
09:55PM -18.3430 143.2200 237° Southwest 430 495 32,000  Descending FlightAware
09:56PM -18.4624 143.0345 237° Southwest 412 474 32,100  Climbing Aus ATC (RADAR)
09:56PM -18.3980 143.1300 237° Southwest 430 495 32,000 -120 Descending FlightAware
09:57PM -18.4320 143.0750 237° Southwest 430 495 32,000 60 Level FlightAware
09:57PM -18.5753 142.8568 237° Southwest 419 482 32,100  Climbing Aus ATC (RADAR)
09:58PM -18.4760 143.0030 237° Southwest 430 495 32,000 -180 Descending FlightAware
09:58PM -18.5100 142.9490 236° Southwest 430 495 32,000 60 Level FlightAware
09:59PM -18.6678 142.7121 236° Southwest 422 486 32,100  Climbing Aus ATC (RADAR)
09:59PM -18.5650 142.8590 236° Southwest 430 495 32,000  Descending FlightAware
10:00PM -18.7687 142.5522 236° Southwest 414 476 32,100  Climbing Aus ATC (RADAR)
10:01PM -18.8223 142.4680 236° Southwest 414 476 32,100  Level Aus ATC (RADAR)
10:02PM -18.8743 142.3841 237° Southwest 410 472 32,100  Level Aus ATC (RADAR)
10:03PM -18.9111 142.3253 236° Southwest 412 474 32,100  Level Aus ATC (RADAR)
10:03PM -18.9643 142.2425 236° Southwest 410 472 32,100  Level Aus ATC (RADAR)
10:04PM -19.0225 142.1508 236° Southwest 410 472 32,200  Climbing Aus ATC (RADAR)
10:06PM -19.1047 142.0163 237° Southwest 409 471 32,200 -120 Level Aus ATC (RADAR)
10:08PM -19.2320 141.8200 237° Southwest 408 470 32,000 -120 Descending FlightAware
10:08PM -19.2730 141.7540 237° Southwest 409 471 32,000  Level FlightAware
10:09PM -19.3150 141.6870 236° Southwest 408 470 32,000  Level FlightAware
10:10PM -19.3610 141.6140 236° Southwest 408 470 32,000  Level FlightAware
10:10PM -19.4030 141.5470 236° Southwest 407 468 32,000  Level FlightAware
10:11PM -19.4527 141.4622 66° East 32,000  Level Aus ATC (Calculated)
10:11PM -19.4460 141.4780 236° Southwest 408 470 32,000  Level FlightAware
10:12PM -19.4900 141.4070 237° Southwest 406 467 32,000  Level FlightAware
10:13PM -19.5350 141.3340 237° Southwest 405 466 32,000  Level FlightAware
10:13PM -19.5780 141.2640 237° Southwest 403 464 32,000  Level FlightAware
10:14PM -19.6320 141.1790 236° Southwest 402 463 32,000  Level FlightAware
10:15PM -19.6760 141.1070 237° Southwest 400 460 32,000  Level FlightAware
10:15PM -19.7120 141.0480 237° Southwest 399 459 32,000  Level FlightAware
10:16PM -19.7833 140.9310 58° Northeast 32,000  Level Aus ATC (Calculated)
10:16PM -19.7570 140.9750 237° Southwest 401 461 32,000  Level FlightAware
10:17PM -19.7940 140.9160 237° Southwest 402 463 32,000  Level FlightAware
10:17PM -19.8350 140.8500 237° Southwest 401 461 32,000  Level FlightAware
10:18PM -19.8800 140.7780 236° Southwest 399 459 32,000  Level FlightAware
10:19PM -19.9170 140.7150 238° Southwest 401 461 32,000  Level FlightAware
10:19PM -19.9540 140.6560 236° Southwest 402 463 32,000  Level FlightAware
10:20PM -19.9990 140.5820 237° Southwest 401 461 32,000  Level FlightAware
10:21PM -20.1085 140.4035 57° Northeast 32,000  Level Aus ATC (Calculated)
10:21PM -20.0390 140.5170 237° Southwest 399 459 32,000  Level FlightAware
10:22PM -20.0840 140.4450 236° Southwest 396 456 32,000  Level FlightAware
10:22PM -20.2131 140.2319 57° Northeast 32,000  Level Aus ATC (Calculated)
10:22PM -20.1260 140.3750 237° Southwest 395 455 32,000  Level FlightAware
10:23PM -20.1660 140.3100 237° Southwest 395 455 32,000  Level FlightAware
10:23PM -20.2697 140.1389 57° Northeast 32,000  Level Aus ATC (Calculated)
10:24PM -20.2050 140.2450 237° Southwest 393 452 32,000  Level FlightAware
10:24PM -20.2400 140.1890 236° Southwest 394 453 32,000  Level FlightAware
10:25PM -20.2870 140.1110 237° Southwest 394 453 32,000  Level FlightAware
10:26PM -20.3260 140.0470 237° Southwest 396 456 32,000  Level FlightAware
10:26PM -20.3630 139.9860 237° Southwest 395 455 32,000  Level FlightAware
10:27PM -20.4040 139.9180 237° Southwest 395 455 32,000  Level FlightAware
10:27PM -20.5168 139.7311 57° Northeast 32,000  Level Aus ATC (Calculated)
10:28PM -20.4470 139.8470 237° Southwest 394 453 32,000  Level FlightAware
10:28PM -20.4870 139.7820 237° Southwest 393 452 32,000  Level FlightAware
10:29PM -20.5260 139.7170 237° Southwest 392 451 32,000  Level FlightAware
10:30PM -20.5680 139.6480 237° Southwest 391 450 32,000  Level FlightAware
10:30PM -20.6080 139.5810 237° Southwest 391 450 32,000  Level FlightAware
10:31PM -20.7228 139.3868 58° Northeast 32,000  Level Aus ATC (Calculated)
10:31PM -20.6510 139.5090 237° Southwest 391 450 32,000  Level FlightAware
10:31PM -20.7809 139.2877 58° Northeast 32,000  Level Aus ATC (Calculated)
10:32PM -20.6920 139.4410 237° Southwest 392 451 32,000  Level FlightAware
10:32PM -20.7300 139.3750 238° Southwest 391 450 32,000  Level FlightAware
10:33PM -20.7730 139.3030 237° Southwest 391 450 32,000  Level FlightAware
10:34PM -20.8110 139.2360 239° Southwest 390 449 32,000  Level FlightAware
10:35PM -20.8530 139.1650 238° Southwest 389 448 32,000  Level FlightAware
10:35PM -20.8840 139.1130 237° Southwest 389 448 32,000  Level FlightAware
10:36PM -20.9270 139.0380 238° Southwest 389 448 32,000  Level FlightAware
10:36PM -21.0706 138.7911 58° Northeast 32,000  Level Aus ATC (Calculated)
10:37PM -20.9660 138.9720 238° Southwest 389 448 32,000  Level FlightAware
10:37PM -20.9990 138.9140 238° Southwest 387 445 32,000  Level FlightAware
10:38PM -21.0410 138.8420 238° Southwest 387 445 32,000  Level FlightAware
10:39PM -21.0800 138.7760 238° Southwest 389 448 32,000  Level FlightAware
10:39PM -21.1210 138.7050 238° Southwest 388 447 32,000  Level FlightAware
10:40PM -21.1600 138.6380 238° Southwest 389 448 32,000  Level FlightAware
10:41PM -21.1970 138.5730 239° Southwest 389 448 32,000  Level FlightAware
10:41PM -21.3588 138.2927 58° Northeast 32,000  Level Aus ATC (Calculated)
10:41PM -21.2390 138.5010 239° Southwest 388 447 32,000  Level FlightAware
10:42PM -21.2730 138.4420 238° Southwest 389 448 32,000  Level FlightAware
10:43PM -21.3110 138.3760 238° Southwest 388 447 32,000  Level FlightAware
10:43PM -21.3490 138.3100 238° Southwest 388 447 32,000  Level FlightAware
10:44PM -21.3910 138.2370 238° Southwest 388 447 32,000  Level FlightAware
10:45PM -21.5310 137.9927 58° Northeast 32,000  Level Aus ATC (Calculated)
10:45PM -21.4290 138.1710 238° Southwest 388 447 32,000  Level FlightAware
10:45PM -21.4690 138.1000 238° Southwest 387 445 32,000  Level FlightAware
10:46PM -21.5070 138.0350 238° Southwest 387 445 32,000  Level FlightAware
10:46PM -21.6329 137.8143 58° Northeast 32,000  Level Aus ATC (Calculated)
10:47PM -21.5410 137.9750 238° Southwest 387 445 32,000  Level FlightAware
10:47PM -21.5810 137.9060 238° Southwest 387 445 32,000  Level FlightAware
10:48PM -21.7220 137.6577 59° Northeast 32,000  Level Aus ATC (Calculated)
10:48PM -21.6210 137.8350 239° Southwest 386 444 32,000  Level FlightAware
10:49PM -21.6710 137.7480 239° Southwest 386 444 32,000  Level FlightAware
10:50PM -21.7100 137.6810 238° Southwest 386 444 32,000  Level FlightAware
10:51PM -21.7390 137.6310 238° Southwest 386 444 32,000  Level FlightAware
10:51PM -21.7770 137.5650 238° Southwest 386 444 32,000  Level FlightAware
10:52PM -21.8060 137.5150 238° Southwest 386 444 32,000  Level FlightAware
10:53PM -21.9884 137.1869 60° Northeast 32,000  Level Aus ATC (Calculated)
10:53PM -21.8460 137.4470 238° Southwest 386 444 32,000  Level FlightAware
10:53PM -21.8760 137.3960 238° Southwest 386 444 32,000  Level FlightAware
10:54PM -21.9050 137.3460 238° Southwest 386 444 32,000  Level FlightAware
10:54PM -22.0768 137.0296 60° Northeast 32,000  Level Aus ATC (Calculated)
10:55PM -21.9340 137.2960 238° Southwest 386 444 32,000  Level FlightAware
10:55PM -21.9720 137.2290 239° Southwest 386 444 32,000  Level FlightAware
10:56PM -22.0010 137.1790 238° Southwest 386 444 32,000  Level FlightAware
10:57PM -22.0300 137.1290 238° Southwest 386 444 32,000  Level FlightAware
10:57PM -22.0690 137.0620 238° Southwest 386 444 32,000  Level FlightAware
10:58PM -22.2534 136.7143 61° Northeast 32,000  Level Aus ATC (Calculated)
10:58PM -22.0980 137.0120 238° Southwest 386 444 32,000  Level FlightAware
10:59PM -22.2974 136.6354 239° Southwest 32,000  Level Aus ATC (Calculated)
10:59PM -22.3537 136.5342 238° Southwest 32,000  Level Aus ATC (Calculated)
11:00PM -22.3819 136.4836 59° Northeast 32,000  Level Aus ATC (Calculated)
11:01PM -22.2923 136.6446 59° Northeast  Level FlightAware Approximate
11:01PM -22.4381 136.3823 59° Northeast 32,000  Level Aus ATC (Calculated)
11:02PM -22.3620 136.5200 59° Northeast 383 441 32,000  Level FlightAware
11:02PM -22.4020 136.4470 239° Southwest 382 440 32,000  Level FlightAware
11:03PM -22.4390 136.3820 238° Southwest 383 441 32,000  Level FlightAware
11:04PM -22.4780 136.3100 240° Southwest 382 440 32,000  Level FlightAware
11:04PM -22.5130 136.2480 239° Southwest 381 438 32,000  Level FlightAware
11:05PM -22.6345 136.0272 59° Northeast 32,000  Level Aus ATC (Calculated)
11:05PM -22.5690 136.1460 239° Southwest 381 438 32,000  Level FlightAware
11:06PM -22.6130 136.0670 239° Southwest 381 438 32,000  Level FlightAware
11:07PM -22.6440 136.0110 239° Southwest 380 437 32,000  Level FlightAware
11:08PM -22.6890 135.9290 239° Southwest 381 438 32,000  Level FlightAware
11:08PM -22.7320 135.8510 239° Southwest 381 438 32,000  Level FlightAware
11:09PM -22.8124 135.7031 59° Northeast 900  Descending Aus ATC (Calculated)
11:09PM -22.7810 135.7600 239° Southwest 381 438 32,000 23,280 Climbing FlightAware
11:10PM -22.8200 135.6890 239° Southwest 381 438 32,000  Level FlightAware
11:11PM -22.8510 135.6320 239° Southwest 380 437 32,000  Level FlightAware
11:11PM -22.8940 135.5550 239° Southwest 380 437 32,000  Level FlightAware
11:12PM -22.9450 135.4600 240° Southwest 378 435 32,000  Level FlightAware
11:13PM -22.9860 135.3850 239° Southwest 378 435 32,000  Level FlightAware
11:14PM -23.0430 135.2796 60° Northeast 900  Descending Aus ATC (Calculated)
11:14PM -23.0210 135.3210 239° Southwest 378 435 32,000 31,620 Climbing FlightAware
11:15PM -23.0610 135.2470 240° Southwest 378 435 32,000  Level FlightAware
11:15PM -23.1087 135.1584 60° Northeast 900  Descending Aus ATC (Calculated)
11:15PM -23.0960 135.1820 240° Southwest 378 435 32,000 40,560 Climbing FlightAware
11:16PM -23.1280 135.1240 240° Southwest 377 434 32,000 -120 Level FlightAware
11:17PM -23.1743 135.0370 62° Northeast 900 -180 Descending Aus ATC (Calculated)
11:17PM -23.1670 135.0520 239° Southwest 378 435 31,900 46,380 Climbing FlightAware
11:17PM -23.2040 134.9830 239° Southwest 376 433 30,300 -2,640 Descending FlightAware
11:18PM -23.2398 134.9156 230° Southwest 900 -2,640 Descending Aus ATC (Calculated)
11:18PM -23.2410 134.9140 239° Southwest 372 428 28,400 26,700 Climbing FlightAware
11:19PM -23.2760 134.8470 240° Southwest 358 412 26,300 -2,940 Descending FlightAware
11:19PM -23.3052 134.7940 55° Northeast 900 -2,640 Descending Aus ATC (Calculated)
11:19PM -23.3020 134.7990 240° Southwest 350 403 24,700 28,140 Climbing FlightAware
11:20PM -23.3360 134.7360 240° Southwest 350 403 22,500 -3,120 Descending FlightAware
11:20PM -23.3379 134.7331 240° Southwest 900 -2,880 Descending Aus ATC (Calculated)
11:21PM -23.3705 134.6723 239° Southwest 900 46,800 Level Aus ATC (Calculated)
11:21PM -23.3740 134.6660 240° Southwest 372 428 20,400 25,740 Climbing FlightAware
11:21PM -23.4040 134.6090 240° Southwest 374 430 18,500 -3,000 Descending FlightAware
11:22PM -23.4460 134.5320 239° Southwest 359 413 16,200 -2,940 Descending FlightAware
11:22PM -23.4683 134.4895 240° Southwest 900 -2,820 Descending Aus ATC (Calculated)
11:23PM -23.4780 134.4710 239° Southwest 345 397 14,400 10,920 Climbing FlightAware
11:23PM -23.5160 134.4010 239° Southwest 338 389 12,400 -2,340 Descending FlightAware
11:24PM -23.5400 134.3560 240° Southwest 328 377 11,400 -1,380 Descending FlightAware
11:24PM -23.5334 134.3674 240° Southwest 900 -960 Descending Aus ATC (Calculated)
11:25PM -23.5710 134.2960 241° Southwest 288 331 10,700 7,680 Climbing FlightAware
11:25PM -23.5984 134.2453 58° Northeast 900 -1,440 Descending Aus ATC (Calculated)
11:25PM -23.5940 134.2530 241° Southwest 285 328 9,800 17,340 Climbing FlightAware
11:26PM -23.6120 134.2190 241° Southwest 281 323 9,000 -1,740 Descending FlightAware
11:26PM -23.6270 134.1920 239° Southwest 279 321 8,400 -1,740 Descending FlightAware
11:27PM -23.6480 134.1510 241° Southwest 276 318 7,500 -1,740 Descending FlightAware
11:27PM -23.6640 134.1220 239° Southwest 276 318 6,800 -1,560 Descending FlightAware
11:27PM -23.6760 134.1000 239° Southwest 276 318 6,400 -1,620 Descending FlightAware
11:28PM -23.6930 134.0670 241° Southwest 268 308 5,700 -1,260 Descending FlightAware
11:28PM -23.7280 134.0007 60° Northeast 900 -840 Descending Aus ATC (Calculated)
11:28PM -23.7060 134.0420 241° Southwest 254 292 5,400 6,120 Climbing FlightAware
11:28PM -23.7280 134.0007 26° Northeast 900 -1,020 Descending Aus ATC (Calculated)
11:28PM -23.7280 134.0007 26° Northeast 900 10,860 Level Aus ATC (Calculated)
11:28PM -23.7280 134.0007 26° Northeast 900 10,860 Level Aus ATC (Calculated)
11:29PM -23.7160 134.0070 253° West 240 276 4,900 4,440 Climbing FlightAware
11:29PM -23.7220 133.9760 253° West 220 253 4,600 -480 Descending FlightAware
11:29PM -23.7250 133.9620 257° West 205 236 4,600 -600 Level FlightAware
11:30PM -23.7300 133.9350 259° West 182 209 4,200 -780 Descending FlightAware
11:30PM -23.7330 133.9190 258° West 164 189 4,000 -840 Descending FlightAware
11:30PM -23.7350 133.9060 260° West 158 182 3,700 -720 Descending FlightAware
11:31PM -23.7380 133.8840 262° West 158 182 3,500 -660 Descending FlightAware
11:31PM -23.7420 133.8610 262° West 155 178 3,100 -840 Descending FlightAware
11:32PM -23.7480 133.8530 231° Southwest 144 166 2,900 -720 Descending FlightAware
11:32PM -23.7650 133.8440 206° Southwest 141 162 2,600 -720 Descending FlightAware
11:32PM -23.7700 133.8430 190° South 137 158 2,500 -660 Descending FlightAware
11:33PM -23.7790 133.8500 145° Southeast 129 148 2,300 -660 Descending FlightAware
11:33PM -23.7860 133.8660 116° Southeast 129 148 2,000 -660 Descending FlightAware
11:33PM -23.7900 133.8720 126° Southeast 132 152 1,900 -780 Descending FlightAware
11:34PM -23.7980 133.8880 126° Southeast 125 144 1,500 -840 Descending FlightAware